Time;durP1;ratioP1;P1;durP2;ratioP2;P2;SDS_P1;SDS_P2;PMS_P1;PMS_P2;Temp;Humidity;BMP_temperature;BMP_pressure;BME280_temperature;BME280_humidity;BME280_pressure;Samples;Min_cycle;Max_cycle;Signal;HPM_P1;HPM_P2
2022/12/04 00:02:23;;;;;;;29.00;15.07;;;;;;;;;;5065177;28;20041;-63
2022/12/04 00:04:49;;;;;;;31.35;15.95;;;;;;;;;;5061674;28;20090;-63
2022/12/04 00:07:15;;;;;;;31.45;15.57;;;;;;;;;;5065048;28;20117;-63
2022/12/04 00:09:41;;;;;;;30.50;15.55;;;1.20;99.90;;;;;;5063895;28;20040;-63
2022/12/04 00:12:07;;;;;;;27.38;14.68;;;;;;;;;;5062454;28;20448;-63
2022/12/04 00:14:33;;;;;;;31.85;14.20;;;;;;;;;;5046678;28;20095;-63
2022/12/04 00:16:59;;;;;;;27.67;14.23;;;;;;;;;;5061837;28;20522;-63
2022/12/04 00:19:25;;;;;;;24.80;14.02;;;;;;;;;;5064332;28;20119;-63
2022/12/04 00:21:51;;;;;;;27.33;13.85;;;;;;;;;;5064323;28;20048;-63
2022/12/04 00:24:17;;;;;;;24.98;13.48;;;;;;;;;;5064359;28;20036;-63
2022/12/04 00:26:43;;;;;;;24.40;14.43;;;;;;;;;;5064378;28;20037;-63
2022/12/04 00:29:09;;;;;;;31.27;15.20;;;;;;;;;;5065903;28;20055;-63
2022/12/04 00:31:35;;;;;;;27.35;13.35;;;;;;;;;;5047794;28;20446;-63
2022/12/04 00:34:01;;;;;;;28.08;13.18;;;1.70;99.90;;;;;;5044151;28;20111;-63
2022/12/04 00:36:28;;;;;;;25.98;13.65;;;;;;;;;;5066008;28;20166;-63
2022/12/04 00:38:54;;;;;;;22.70;12.35;;;;;;;;;;5062653;28;20051;-64
2022/12/04 00:41:21;;;;;;;26.52;13.13;;;;;;;;;;5069103;28;20037;-63
2022/12/04 00:43:47;;;;;;;29.15;14.15;;;1.60;99.90;;;;;;5066059;28;20039;-63
2022/12/04 00:46:14;;;;;;;23.75;12.50;;;;;;;;;;5049398;28;20053;-63
2022/12/04 00:48:40;;;;;;;24.95;12.77;;;1.60;99.90;;;;;;5066834;28;20043;-63
2022/12/04 00:51:12;;;;;;;25.65;13.13;;;1.50;99.90;;;;;;5061992;28;20048;-63
2022/12/04 00:53:38;;;;;;;23.73;13.63;;;;;;;;;;5047008;28;20068;-63
2022/12/04 00:56:05;;;;;;;27.58;14.20;;;;;;;;;;5062376;28;20116;-63
2022/12/04 00:58:31;;;;;;;27.77;13.75;;;;;;;;;;5065139;28;20063;-63
2022/12/04 01:01:04;;;;;;;25.23;13.05;;;;;;;;;;5066319;28;20477;-63
2022/12/04 01:03:30;;;;;;;30.50;15.18;;;1.60;99.90;;;;;;5064975;28;20072;-63
2022/12/04 01:05:56;;;;;;;24.25;12.15;;;;;;;;;;5066648;28;20068;-63
2022/12/04 01:08:22;;;;;;;27.85;14.27;;;;;;;;;;5064047;28;20040;-63
2022/12/04 01:10:48;;;;;;;27.15;15.30;;;;;;;;;;5066044;28;20714;-63
2022/12/04 01:13:14;;;;;;;30.65;15.68;;;;;;;;;;5064601;28;20094;-63
2022/12/04 01:15:42;;;;;;;26.60;13.88;;;;;;;;;;5066087;28;20082;-63
2022/12/04 01:18:09;;;;;;;25.58;13.95;;;;;;;;;;5063774;28;20049;-63
2022/12/04 01:20:35;;;;;;;25.70;14.23;;;;;;;;;;5066625;28;20450;-63
2022/12/04 01:23:00;;;;;;;32.08;16.05;;;1.60;99.90;;;;;;5062972;28;20032;-63
2022/12/04 01:25:26;;;;;;;26.52;13.27;;;1.60;99.90;;;;;;5039411;28;20044;-63
2022/12/04 01:27:52;;;;;;;24.15;13.10;;;;;;;;;;5063296;28;20043;-63
2022/12/04 01:30:18;;;;;;;26.30;14.75;;;;;;;;;;5065382;28;20097;-63
2022/12/04 01:32:44;;;;;;;25.63;13.88;;;;;;;;;;5067553;28;20044;-63
2022/12/04 01:35:10;;;;;;;25.38;12.75;;;;;;;;;;5065704;28;20133;-63
2022/12/04 01:37:36;;;;;;;28.13;14.10;;;;;;;;;;5068174;28;20501;-63
2022/12/04 01:40:02;;;;;;;27.25;13.77;;;;;;;;;;5068364;28;20367;-63
2022/12/04 01:42:28;;;;;;;28.45;13.50;;;;;;;;;;5068481;28;20048;-63
2022/12/04 01:45:24;;;;;;;28.08;14.10;;;;;;;;;;5051391;28;20550;-63
2022/12/04 01:47:50;;;;;;;;;;;;;;;;;;5053124;28;20040;-63
2022/12/04 01:50:16;;;;;;;26.08;12.98;;;;;;;;;;5060910;28;19916;-63
2022/12/04 01:52:41;;;;;;;29.20;14.48;;;1.90;99.90;;;;;;5064585;28;20064;-63
2022/12/04 01:55:08;;;;;;;28.02;14.23;;;;;;;;;;5066730;28;20107;-64
2022/12/04 01:57:35;;;;;;;31.88;15.30;;;;;;;;;;5068809;28;20708;-63
2022/12/04 02:00:06;;;;;;;25.83;12.98;;;;;;;;;;5051577;28;20043;-63
2022/12/04 02:02:37;;;;;;;26.55;13.50;;;1.20;99.90;;;;;;5068434;28;20033;-63
2022/12/04 02:05:04;;;;;;;29.35;14.00;;;;;;;;;;5049743;28;20052;-63
2022/12/04 02:07:31;;;;;;;29.23;14.02;;;;;;;;;;5062380;28;20048;-63
2022/12/04 02:10:02;;;;;;;29.15;14.20;;;;;;;;;;5065204;28;20493;-63
2022/12/04 02:12:31;;;;;;;32.58;15.63;;;;;;;;;;5050607;28;20153;-63
2022/12/04 02:15:27;;;;;;;28.10;15.00;;;;;;;;;;5065460;28;20047;-63
2022/12/04 02:17:56;;;;;;;;;;;0.60;99.90;;;;;;4998681;28;20540;-63
2022/12/04 02:20:25;;;;;;;29.92;14.07;;;;;;;;;;5065693;28;19921;-63
2022/12/04 02:23:05;;;;;;;34.00;16.30;;;;;;;;;;5067030;28;20029;-63
2022/12/04 02:25:34;;;;;;;30.20;14.55;;;;;;;;;;5066611;28;20489;-63
2022/12/04 02:28:22;;;;;;;27.13;14.43;;;0.10;99.90;;;;;;5063726;28;20048;-63
2022/12/04 02:30:50;;;;;;;33.25;15.57;;;;;;;;;;5067009;28;20036;-63
2022/12/04 02:33:24;;;;;;;31.90;15.50;;;0.20;99.90;;;;;;5064183;28;20047;-63
2022/12/04 02:36:02;;;;;;;33.63;17.08;;;;;;;;;;5070215;28;20028;-63
2022/12/04 02:38:36;;;;;;;31.88;16.02;;;;;;;;;;5050413;28;20055;-63
2022/12/04 02:41:05;;;;;;;35.50;16.15;;;;;;;;;;5068088;28;20032;-63
2022/12/04 02:43:45;;;;;;;30.58;15.00;;;;;;;;;;5071441;28;20133;-63
2022/12/04 02:46:24;;;;;;;35.00;14.98;;;;;;;;;;5071439;28;20089;-63
2022/12/04 02:48:51;;;;;;;32.40;16.20;;;;;;;;;;5070700;28;20684;-63
2022/12/04 02:51:20;;;;;;;34.42;15.68;;;0.70;99.90;;;;;;5072534;28;20570;-63
2022/12/04 02:53:51;;;;;;;32.85;15.85;;;;;;;;;;5069995;28;20060;-63
2022/12/04 02:56:23;;;;;;;32.17;15.75;;;0.30;99.90;;;;;;5063477;28;20390;-63
2022/12/04 02:58:52;;;;;;;37.80;16.17;;;;;;;;;;5068633;28;20059;-63
2022/12/04 03:01:20;;;;;;;33.53;15.85;;;;;;;;;;5063937;28;20032;-63
2022/12/04 03:04:15;;;;;;;32.88;16.23;;;;;;;;;;5071279;28;20048;-63
2022/12/04 03:06:45;;;;;;;35.50;17.35;;;0.00;99.90;;;;;;5049825;28;20119;-63
2022/12/04 03:09:17;;;;;;;34.65;16.58;;;;;;;;;;5066028;28;20113;-63
2022/12/04 03:11:51;;;;;;;30.33;15.52;;;0.30;99.90;;;;;;5069307;28;20037;-63
2022/12/04 03:14:20;;;;;;;33.53;15.52;;;;;;;;;;5067828;28;20563;-63
2022/12/04 03:16:47;;;;;;;32.63;17.00;;;;;;;;;;5065776;28;20059;-63
2022/12/04 03:19:16;;;;;;;30.73;15.82;;;;;;;;;;5045749;28;20036;-63
2022/12/04 03:22:06;;;;;;;30.05;15.85;;;0.60;99.90;;;;;;5059806;28;20039;-63
2022/12/04 03:24:34;;;;;;;34.22;15.85;;;;;;;;;;5067552;28;20393;-63
2022/12/04 03:27:04;;;;;;;30.05;15.35;;;;;;;;;;5059176;28;20035;-63
2022/12/04 03:29:38;;;;;;;29.25;15.45;;;;;;;;;;5063512;28;20041;-63
2022/12/04 03:32:11;;;;;;;39.47;18.95;;;;;;;;;;5068666;28;20116;-62
2022/12/04 03:34:51;;;;;;;37.47;17.90;;;;;;;;;;5061125;28;20037;-63
2022/12/04 03:39:50;;;;;;;32.35;15.45;;;1.30;99.90;;;;;;5086773;28;20113;-57
2022/12/04 03:42:30;;;;;;;30.50;14.75;;;0.60;99.90;;;;;;5087700;28;20471;-58
2022/12/04 03:45:26;;;;;;;29.98;15.77;;;;;;;;;;5083553;28;20040;-57
2022/12/04 03:47:57;;;;;;;31.48;16.33;;;1.90;99.90;;;;;;5074626;28;20451;-57
2022/12/04 03:50:44;;;;;;;32.50;15.30;;;;;;;;;;5065676;28;20636;-57
2022/12/04 03:53:18;;;;;;;32.45;17.00;;;;;;;;;;5074209;28;20285;-56
2022/12/04 03:55:44;;;;;;;;;;;;;;;;;;5061052;28;20098;-58
2022/12/04 03:58:16;;;;;;;31.58;16.00;;;1.50;99.90;;;;;;5079404;28;19917;-57
2022/12/04 04:00:44;;;;;;;34.60;17.27;;;1.20;99.90;;;;;;5061772;28;20087;-58
2022/12/04 04:03:36;;;;;;;30.90;16.95;;;1.30;99.90;;;;;;5063185;28;20414;-57
2022/12/04 04:06:08;;;;;;;37.58;16.30;;;1.20;99.90;;;;;;5079591;28;20050;-58
2022/12/04 04:08:38;;;;;;;34.85;17.42;;;2.10;99.90;;;;;;5090092;28;20067;-57
2022/12/04 04:11:16;;;;;;;36.10;17.10;;;1.20;99.90;;;;;;5079355;28;20036;-59
2022/12/04 04:25:12;;;;;;;31.15;16.45;;;;;;;;;;5087346;28;20044;-57
2022/12/04 04:27:39;;;;;;;34.88;18.05;;;;;;;;;;5061991;28;20126;-56
2022/12/04 04:30:05;;;;;;;36.80;17.55;;;;;;;;;;5081266;28;20454;-57
2022/12/04 04:32:39;;;;;;;37.20;18.20;;;;;;;;;;5084137;28;20043;-53
2022/12/04 04:35:05;;;;;;;35.88;19.48;;;;;;;;;;5088818;28;20048;-56
2022/12/04 04:37:41;;;;;;;32.03;17.67;;;;;;;;;;5082523;28;20040;-55
2022/12/04 04:40:19;;;;;;;34.35;17.50;;;;;;;;;;5083614;28;20067;-57
2022/12/04 04:42:53;;;;;;;35.65;18.77;;;1.80;99.90;;;;;;5087372;28;20042;-55
2022/12/04 04:45:19;;;;;;;;;;;;;;;;;;5075720;28;20040;-57
2022/12/04 04:47:50;;;;;;;37.05;18.58;;;;;;;;;;5077600;28;20415;-55
2022/12/04 04:50:16;;;;;;;36.60;18.45;;;;;;;;;;5078163;28;20126;-55
2022/12/04 04:52:45;;;;;;;36.38;18.58;;;;;;;;;;5076884;28;20044;-56
2022/12/04 04:55:11;;;;;;;41.95;18.95;;;;;;;;;;5071910;28;20398;-55
2022/12/04 04:57:37;;;;;;;38.05;20.48;;;1.60;99.90;;;;;;5079522;28;20064;-55
2022/12/04 05:00:06;;;;;;;37.30;18.73;;;;;;;;;;5083255;28;20492;-54
2022/12/04 05:02:32;;;;;;;38.83;20.10;;;;;;;;;;5084524;28;20203;-55
2022/12/04 05:04:59;;;;;;;35.67;19.33;;;;;;;;;;5077111;28;20105;-56
2022/12/04 05:07:25;;;;;;;34.40;18.40;;;;;;;;;;5064906;28;20105;-53
2022/12/04 05:09:50;;;;;;;39.85;19.75;;;1.50;99.90;;;;;;5079604;28;20045;-55
2022/12/04 05:12:16;;;;;;;40.40;19.08;;;;;;;;;;5082218;28;20032;-55
2022/12/04 05:14:42;;;;;;;42.33;20.50;;;1.60;99.90;;;;;;5084724;28;20140;-55
2022/12/04 05:17:08;;;;;;;40.97;20.83;;;;;;;;;;5082032;28;20478;-57
2022/12/04 05:19:52;;;;;;;38.15;20.55;;;;;;;;;;5086743;28;20051;-55
2022/12/04 05:22:22;;;;;;;42.97;21.58;;;;;;;;;;5079308;28;20100;-58
2022/12/04 05:24:48;;;;;;;40.10;19.98;;;;;;;;;;5088382;28;20040;-58
2022/12/04 05:27:14;;;;;;;42.95;20.60;;;;;;;;;;5083314;28;20172;-56
2022/12/04 05:29:40;;;;;;;41.67;21.55;;;;;;;;;;5077033;28;20032;-55
2022/12/04 05:32:06;;;;;;;39.50;20.15;;;1.40;99.90;;;;;;5079399;28;20490;-56
2022/12/04 05:34:32;;;;;;;44.15;22.05;;;;;;;;;;5085072;28;20036;-56
2022/12/04 05:36:58;;;;;;;41.47;21.00;;;;;;;;;;5082942;28;20028;-56
2022/12/04 05:39:24;;;;;;;40.47;21.08;;;;;;;;;;5082674;28;20048;-55
2022/12/04 05:41:50;;;;;;;37.63;21.08;;;;;;;;;;5085338;28;20070;-56
2022/12/04 05:44:16;;;;;;;40.50;20.73;;;;;;;;;;5064853;28;20503;-56
2022/12/04 05:46:42;;;;;;;38.35;20.70;;;;;;;;;;5085407;28;20075;-58
2022/12/04 05:49:08;;;;;;;45.53;22.75;;;;;;;;;;5076388;28;20040;-55
2022/12/04 05:51:34;;;;;;;45.10;23.70;;;;;;;;;;5086049;28;20036;-56
2022/12/04 05:53:59;;;;;;;41.67;20.42;;;1.40;99.90;;;;;;5085035;28;20117;-55
2022/12/04 05:56:25;;;;;;;42.17;22.80;;;1.40;99.90;;;;;;5077956;28;20079;-56
2022/12/04 05:58:51;;;;;;;41.15;23.33;;;;;;;;;;5084900;28;20103;-56
2022/12/04 06:01:19;;;;;;;46.22;24.58;;;;;;;;;;5076241;28;20040;-58
2022/12/04 06:03:44;;;;;;;39.35;20.67;;;1.50;99.90;;;;;;5057911;28;20071;-56
2022/12/04 06:06:16;;;;;;;40.67;22.08;;;1.20;99.90;;;;;;5065862;28;20076;-55
2022/12/04 06:08:41;;;;;;;40.45;20.73;;;1.40;99.90;;;;;;5085008;28;20153;-56
2022/12/04 06:11:12;;;;;;;39.47;22.02;;;;;;;;;;5067686;28;20164;-53
2022/12/04 06:13:39;;;;;;;40.22;21.92;;;;;;;;;;5082416;28;20424;-56
2022/12/04 06:16:06;;;;;;;39.42;21.40;;;;;;;;;;5075912;28;20379;-56
2022/12/04 06:18:31;;;;;;;38.72;20.83;;;;;;;;;;5085420;28;20036;-56
2022/12/04 06:20:57;;;;;;;38.05;22.13;;;1.50;99.90;;;;;;5065232;28;20037;-55
2022/12/04 06:23:23;;;;;;;40.13;20.88;;;;;;;;;;5068917;28;20272;-56
2022/12/04 06:25:49;;;;;;;38.75;20.98;;;;;;;;;;5081002;28;20040;-55
2022/12/04 06:28:15;;;;;;;41.83;22.90;;;;;;;;;;5088403;28;20562;-58
2022/12/04 06:30:41;;;;;;;37.40;20.27;;;;;;;;;;5087686;28;20036;-58
2022/12/04 06:33:07;;;;;;;42.25;21.45;;;;;;;;;;5089650;28;20409;-57
2022/12/04 06:35:33;;;;;;;41.55;21.38;;;;;;;;;;5089825;28;20044;-56
2022/12/04 06:37:59;;;;;;;41.22;23.05;;;;;;;;;;5091669;28;20032;-56
2022/12/04 06:40:25;;;;;;;41.55;22.02;;;;;;;;;;5091989;28;20036;-56
2022/12/04 06:42:51;;;;;;;42.08;21.23;;;;;;;;;;5080817;28;20040;-55
2022/12/04 06:45:29;;;;;;;44.53;22.60;;;2.10;99.90;;;;;;5080645;28;20043;-54
2022/12/04 06:47:55;;;;;;;41.38;21.45;;;1.50;99.90;;;;;;5087378;28;20032;-56
2022/12/04 06:50:21;;;;;;;45.30;22.13;;;;;;;;;;5079611;28;20063;-58
2022/12/04 06:52:47;;;;;;;41.72;22.55;;;;;;;;;;5079547;28;20036;-58
2022/12/04 06:55:13;;;;;;;40.20;20.92;;;;;;;;;;5073146;28;20040;-53
2022/12/04 06:57:39;;;;;;;43.28;22.60;;;;;;;;;;5078850;28;20032;-54
2022/12/04 07:00:05;;;;;;;41.05;23.27;;;;;;;;;;5077519;28;20033;-56
2022/12/04 07:02:31;;;;;;;41.08;20.00;;;;;;;;;;5060536;28;20047;-56
2022/12/04 07:04:57;;;;;;;39.88;20.90;;;;;;;;;;5083837;28;20036;-55
2022/12/04 07:07:23;;;;;;;42.40;21.95;;;;;;;;;;5063007;28;20040;-56
2022/12/04 07:09:49;;;;;;;44.60;20.80;;;;;;;;;;5085649;28;20032;-57
2022/12/04 07:12:15;;;;;;;44.05;22.55;;;1.50;99.90;;;;;;5092082;28;20359;-57
2022/12/04 07:14:40;;;;;;;37.42;20.00;;;1.60;99.90;;;;;;5069707;28;20048;-54
2022/12/04 07:17:06;;;;;;;42.53;22.40;;;;;;;;;;5076852;28;20090;-58
2022/12/04 07:19:32;;;;;;;38.95;20.02;;;;;;;;;;5081893;28;20566;-56
2022/12/04 07:21:58;;;;;;;39.75;21.33;;;;;;;;;;5063530;28;20037;-57
2022/12/04 07:24:24;;;;;;;39.95;20.33;;;1.50;99.90;;;;;;5082287;28;20044;-56
2022/12/04 07:26:49;;;;;;;40.55;21.00;;;1.70;99.90;;;;;;5087879;28;20075;-56
2022/12/04 07:29:15;;;;;;;42.15;23.13;;;;;;;;;;5062824;28;20067;-57
2022/12/04 07:31:43;;;;;;;38.38;20.25;;;;;;;;;;5087314;28;20494;-54
2022/12/04 07:34:09;;;;;;;39.65;20.80;;;1.90;99.90;;;;;;5089726;28;20513;-56
2022/12/04 07:36:34;;;;;;;39.33;20.50;;;1.70;99.90;;;;;;5071030;28;20041;-57
2022/12/04 07:39:03;;;;;;;40.25;21.83;;;;;;;;;;5090769;28;20032;-56
2022/12/04 07:41:28;;;;;;;37.40;21.20;;;1.80;99.90;;;;;;5068848;28;20028;-55
2022/12/04 07:43:56;;;;;;;41.25;19.73;;;;;;;;;;5081358;28;20466;-55
2022/12/04 07:46:25;;;;;;;41.83;21.38;;;2.30;99.90;;;;;;5062699;28;20414;-57
2022/12/04 07:48:51;;;;;;;39.35;20.65;;;;;;;;;;5084301;28;20151;-56
2022/12/04 07:51:20;;;;;;;41.83;22.40;;;1.40;99.90;;;;;;5069011;28;20378;-55
2022/12/04 07:53:46;;;;;;;37.55;19.92;;;1.80;99.90;;;;;;5089866;28;20044;-54
2022/12/04 07:56:13;;;;;;;36.65;20.15;;;;;;;;;;5081886;28;20434;-57
2022/12/04 07:58:40;;;;;;;43.30;22.02;;;;;;;;;;5087297;28;20036;-56
2022/12/04 08:01:11;;;;;;;40.83;20.70;;;;;;;;;;5082491;28;20099;-55
2022/12/04 08:03:37;;;;;;;40.70;20.95;;;;;;;;;;5087852;28;20547;-56
2022/12/04 08:06:04;;;;;;;41.50;22.33;;;;;;;;;;5087621;28;20036;-56
2022/12/04 08:08:30;;;;;;;36.05;19.48;;;;;;;;;;5087241;28;20300;-56
2022/12/04 08:10:56;;;;;;;41.10;20.58;;;;;;;;;;5062542;28;20445;-56
2022/12/04 08:13:22;;;;;;;44.13;22.30;;;;;;;;;;5079108;28;20180;-56
2022/12/04 08:15:48;;;;;;;42.25;21.08;;;;;;;;;;5084064;28;20044;-56
2022/12/04 08:18:14;;;;;;;38.47;19.83;;;;;;;;;;5076910;28;20406;-56
2022/12/04 08:20:40;;;;;;;43.08;23.17;;;;;;;;;;5055295;28;20062;-54
2022/12/04 08:23:06;;;;;;;42.05;22.02;;;1.90;99.90;;;;;;5087333;28;20489;-56
2022/12/04 08:25:31;;;;;;;39.40;21.20;;;1.90;99.90;;;;;;5085417;28;20127;-56
2022/12/04 08:27:57;;;;;;;45.20;23.45;;;;;;;;;;5079444;28;20058;-56
2022/12/04 08:30:23;;;;;;;44.05;21.63;;;;;;;;;;5088292;28;20051;-56
2022/12/04 08:32:50;;;;;;;38.45;21.25;;;;;;;;;;5088493;28;20032;-56
2022/12/04 08:35:16;;;;;;;40.50;22.02;;;;;;;;;;5065047;28;20125;-56
2022/12/04 08:37:41;;;;;;;39.75;20.25;;;1.90;99.90;;;;;;5059135;28;20032;-55
2022/12/04 08:40:07;;;;;;;39.50;21.42;;;;;;;;;;5078605;28;20036;-56
2022/12/04 08:42:33;;;;;;;49.05;23.08;;;2.00;99.90;;;;;;5084439;28;20536;-56
2022/12/04 08:44:59;;;;;;;38.65;19.85;;;;;;;;;;5081889;28;20182;-56
2022/12/04 08:47:25;;;;;;;44.75;20.60;;;;;;;;;;5083709;28;20020;-56
2022/12/04 08:49:51;;;;;;;40.97;22.05;;;;;;;;;;5074257;28;20525;-54
2022/12/04 08:52:17;;;;;;;40.35;21.33;;;;;;;;;;5077950;28;20036;-56
2022/12/04 08:54:43;;;;;;;44.58;21.90;;;;;;;;;;5070680;28;20035;-56
2022/12/04 08:57:09;;;;;;;41.17;20.92;;;;;;;;;;5071272;28;20048;-56
2022/12/04 08:59:35;;;;;;;37.00;20.83;;;2.10;99.90;;;;;;5057856;28;20036;-56
2022/12/04 09:02:00;;;;;;;42.28;21.67;;;2.20;99.90;;;;;;5071867;28;20574;-56
2022/12/04 09:04:26;;;;;;;40.58;21.35;;;;;;;;;;5067900;28;20032;-56
2022/12/04 09:06:52;;;;;;;40.50;20.35;;;;;;;;;;5079614;28;20089;-55
2022/12/04 09:09:18;;;;;;;42.92;21.92;;;;;;;;;;5072186;28;20109;-56
2022/12/04 09:11:45;;;;;;;38.60;20.13;;;;;;;;;;5079579;28;20401;-56
2022/12/04 09:14:11;;;;;;;42.50;19.95;;;;;;;;;;5085688;28;20038;-56
2022/12/04 09:16:37;;;;;;;40.20;21.60;;;;;;;;;;5081130;28;20054;-56
2022/12/04 09:19:04;;;;;;;40.08;21.77;;;;;;;;;;5083591;28;20078;-57
2022/12/04 09:21:30;;;;;;;37.75;20.23;;;;;;;;;;5088251;28;20409;-55
2022/12/04 09:23:56;;;;;;;40.58;20.73;;;;;;;;;;5082053;28;20033;-56
2022/12/04 09:26:32;;;;;;;39.05;20.38;;;;;;;;;;5083907;28;20371;-53
2022/12/04 09:28:58;;;;;;;39.72;19.55;;;;;;;;;;5083201;28;20043;-56
2022/12/04 09:31:25;;;;;;;42.38;22.15;;;;;;;;;;5079676;28;20051;-56
2022/12/04 09:33:51;;;;;;;40.22;20.08;;;2.30;99.90;;;;;;5058722;28;20268;-56
2022/12/04 09:36:17;;;;;;;38.35;21.02;;;2.20;99.90;;;;;;5065166;28;20371;-56
2022/12/04 09:38:44;;;;;;;44.67;21.27;;;;;;;;;;5140809;22;20127;-61
2022/12/04 09:41:10;;;;;;;36.55;21.42;;;;;;;;;;5060846;28;20107;-61
2022/12/04 09:43:45;;;;;;;38.42;21.00;;;;;;;;;;5077426;28;20079;-61
2022/12/04 09:46:14;;;;;;;38.78;20.05;;;;;;;;;;5074410;28;20040;-61
2022/12/04 09:48:41;;;;;;;36.30;20.67;;;;;;;;;;5072147;28;21161;-63
2022/12/04 09:51:17;;;;;;;39.47;21.13;;;;;;;;;;5071204;28;20047;-63
2022/12/04 09:53:44;;;;;;;38.00;19.58;;;;;;;;;;5062304;28;20497;-64
2022/12/04 09:56:16;;;;;;;38.90;21.70;;;2.70;99.90;;;;;;5077881;28;20036;-63
2022/12/04 09:58:48;;;;;;;40.75;20.90;;;;;;;;;;5066003;28;20047;-63
2022/12/04 10:01:19;;;;;;;35.92;19.95;;;;;;;;;;5087515;28;20043;-63
2022/12/04 10:03:45;;;;;;;38.05;20.98;;;;;;;;;;5081337;28;20146;-63
2022/12/04 10:06:17;;;;;;;41.65;20.73;;;;;;;;;;5083101;28;20048;-64
2022/12/04 10:08:45;;;;;;;37.05;20.02;;;;;;;;;;5078957;28;20048;-63
2022/12/04 10:11:22;;;;;;;38.55;20.42;;;;;;;;;;5065162;28;20072;-64
2022/12/04 10:14:07;;;;;;;38.97;19.80;;;;;;;;;;5067608;28;20051;-63
2022/12/04 10:16:45;;;;;;;32.97;19.92;;;;;;;;;;5084596;28;20462;-64
2022/12/04 10:19:26;;;;;;;36.08;20.65;;;;;;;;;;5076185;28;20046;-64
2022/12/04 10:21:58;;;;;;;38.15;20.13;;;;;;;;;;5081931;28;20428;-63
2022/12/04 10:24:34;;;;;;;35.65;20.35;;;;;;;;;;5078168;28;20036;-64
2022/12/04 10:27:04;;;;;;;32.83;18.40;;;;;;;;;;5072229;28;20033;-63
2022/12/04 10:29:32;;;;;;;37.83;19.60;;;;;;;;;;5079045;28;20506;-63
2022/12/04 10:32:03;;;;;;;32.95;18.85;;;;;;;;;;5078143;28;20043;-62
2022/12/04 10:34:29;;;;;;;35.33;19.50;;;;;;;;;;5075599;28;20341;-62
2022/12/04 10:37:00;;;;;;;33.42;19.42;;;2.80;99.90;;;;;;5070933;28;20041;-62
2022/12/04 10:39:33;;;;;;;29.65;16.70;;;;;;;;;;5075384;28;20550;-62
2022/12/04 10:42:04;;;;;;;31.52;16.75;;;3.60;99.90;;;;;;5075539;28;20054;-62
2022/12/04 10:44:30;;;;;;;33.45;17.95;;;;;;;;;;5068327;28;20127;-62
2022/12/04 10:46:58;;;;;;;35.45;19.65;;;;;;;;;;5081505;28;20123;-62
2022/12/04 10:49:26;;;;;;;34.28;19.08;;;;;;;;;;5084675;28;20401;-62
2022/12/04 10:51:53;;;;;;;31.90;18.13;;;;;;;;;;5076677;28;20605;-62
2022/12/04 10:54:32;;;;;;;28.10;16.27;;;3.30;99.90;;;;;;5072979;28;20042;-63
2022/12/04 10:57:06;;;;;;;29.88;17.52;;;3.20;99.90;;;;;;5077722;28;20370;-62
2022/12/04 10:59:32;;;;;;;28.95;14.93;;;;;;;;;;5080711;28;20133;-62
2022/12/04 11:02:18;;;;;;;29.25;16.30;;;3.60;99.90;;;;;;5080253;28;20097;-62
2022/12/04 11:04:50;;;;;;;31.15;16.17;;;;;;;;;;5079022;28;20043;-63
2022/12/04 11:07:21;;;;;;;25.38;15.85;;;;;;;;;;5077734;28;20520;-63
2022/12/04 11:09:58;;;;;;;27.42;15.07;;;3.70;99.90;;;;;;5064993;28;20044;-62
2022/12/04 11:12:24;;;;;;;25.65;15.43;;;;;;;;;;5082224;28;20173;-62
2022/12/04 11:15:12;;;;;;;26.88;14.82;;;;;;;;;;5076101;28;20063;-63
2022/12/04 11:17:38;;;;;;;28.10;15.52;;;;;;;;;;5083411;28;20798;-62
2022/12/04 11:20:07;;;;;;;26.00;15.63;;;;;;;;;;5079419;28;20461;-62
2022/12/04 11:22:35;;;;;;;24.85;14.35;;;;;;;;;;5079079;28;20096;-62
2022/12/04 11:25:00;;;;;;;28.13;14.98;;;3.80;99.90;;;;;;5077019;28;20082;-62
2022/12/04 11:27:31;;;;;;;24.80;13.98;;;;;;;;;;5089234;28;20063;-62
2022/12/04 11:30:00;;;;;;;24.27;13.65;;;4.10;99.90;;;;;;5089350;28;20345;-62
2022/12/04 11:32:29;;;;;;;23.00;12.40;;;4.10;99.90;;;;;;5089557;28;20394;-62
2022/12/04 11:34:58;;;;;;;22.75;12.35;;;;;;;;;;5080010;28;20032;-62
2022/12/04 11:37:26;;;;;;;21.02;12.32;;;;;;;;;;5080883;28;20082;-62
2022/12/04 11:39:53;;;;;;;20.15;12.35;;;3.70;99.90;;;;;;5064996;28;20048;-62
2022/12/04 11:42:24;;;;;;;22.60;13.20;;;;;;;;;;5081859;28;20037;-62
2022/12/04 11:44:52;;;;;;;21.73;12.00;;;;;;;;;;5084898;28;20036;-62
2022/12/04 11:47:21;;;;;;;20.73;13.20;;;4.10;99.90;;;;;;5086622;28;20051;-62
2022/12/04 11:50:00;;;;;;;25.85;17.13;;;;;;;;;;5059812;28;20036;-62
2022/12/04 11:52:44;;;;;;;22.73;13.10;;;;;;;;;;5088332;28;20044;-62
2022/12/04 11:55:17;;;;;;;19.60;10.55;;;;;;;;;;5084769;28;20067;-62
2022/12/04 11:58:05;;;;;;;19.13;12.02;;;4.60;99.90;;;;;;5081377;28;20047;-62
2022/12/04 12:00:32;;;;;;;21.52;13.18;;;;;;;;;;5059324;28;20052;-63
2022/12/04 12:03:01;;;;;;;16.90;9.93;;;;;;;;;;5077120;28;20093;-62
2022/12/04 12:05:27;;;;;;;15.50;9.15;;;;;;;;;;5071777;28;20028;-62
2022/12/04 12:07:58;;;;;;;14.30;8.70;;;;;;;;;;5072051;28;20063;-62
2022/12/04 12:10:39;;;;;;;16.02;8.77;;;;;;;;;;5069572;28;20533;-62
2022/12/04 12:13:12;;;;;;;13.77;7.45;;;;;;;;;;5056075;28;20041;-62
2022/12/04 12:15:53;;;;;;;14.48;8.48;;;;;;;;;;5056150;28;20119;-63
2022/12/04 12:18:19;;;;;;;15.50;9.38;;;;;;;;;;5055139;28;20547;-61
2022/12/04 12:21:04;;;;;;;15.18;8.70;;;;;;;;;;5074247;28;20033;-63
2022/12/04 12:23:37;;;;;;;16.83;9.88;;;;;;;;;;5071457;28;20028;-62
2022/12/04 12:26:09;;;;;;;14.32;8.32;;;;;;;;;;5071482;28;20072;-62
2022/12/04 12:28:35;;;;;;;16.85;9.55;;;;;;;;;;5072017;28;20184;-61
2022/12/04 12:31:09;;;;;;;17.48;8.90;;;4.20;99.90;;;;;;5069313;28;20537;-62
2022/12/04 12:33:38;;;;;;;19.38;9.80;;;;;;;;;;5072361;28;20033;-62
2022/12/04 12:36:06;;;;;;;18.20;10.40;;;4.30;99.90;;;;;;5070423;28;20111;-62
2022/12/04 12:38:56;;;;;;;17.52;9.63;;;;;;;;;;5075818;28;20052;-61
2022/12/04 12:41:35;;;;;;;16.42;9.20;;;;;;;;;;5081637;28;20504;-62
2022/12/04 12:44:07;;;;;;;16.60;9.98;;;;;;;;;;5070770;28;20029;-61
2022/12/04 12:46:50;;;;;;;17.15;9.95;;;;;;;;;;5068261;28;20036;-62
2022/12/04 12:49:28;;;;;;;16.15;9.48;;;;;;;;;;5063524;28;20044;-62
2022/12/04 12:52:04;;;;;;;16.40;10.38;;;;;;;;;;5075700;28;20063;-62
2022/12/04 12:54:42;;;;;;;16.63;9.35;;;;;;;;;;5074660;28;20036;-61
2022/12/04 12:57:21;;;;;;;17.38;9.75;;;;;;;;;;5069722;28;20155;-62
2022/12/04 12:59:50;;;;;;;18.85;10.43;;;;;;;;;;5063511;28;20044;-62
2022/12/04 13:02:28;;;;;;;16.90;10.30;;;;;;;;;;5073959;28;20094;-61
2022/12/04 13:04:56;;;;;;;16.33;10.13;;;;;;;;;;5073068;28;20099;-61
2022/12/04 13:07:41;;;;;;;16.50;9.98;;;;;;;;;;5070330;28;20165;-61
2022/12/04 13:10:12;;;;;;;17.17;9.00;;;;;;;;;;5078781;28;20036;-62
2022/12/04 13:12:50;;;;;;;16.85;10.38;;;3.20;99.90;;;;;;5075775;28;20402;-62
2022/12/04 13:15:20;;;;;;;19.40;10.45;;;3.90;99.90;;;;;;5069440;28;20028;-62
2022/12/04 13:17:50;;;;;;;22.27;12.07;;;3.90;99.90;;;;;;5049513;28;20032;-62
2022/12/04 13:20:22;;;;;;;18.40;11.05;;;4.00;99.90;;;;;;5076568;28;20031;-63
2022/12/04 13:22:51;;;;;;;17.85;10.07;;;;;;;;;;5054272;28;20052;-62
2022/12/04 13:25:27;;;;;;;19.35;11.20;;;;;;;;;;5079482;28;20222;-62
2022/12/04 13:28:02;;;;;;;21.52;11.85;;;;;;;;;;5077583;28;20115;-62
2022/12/04 13:30:40;;;;;;;18.85;11.10;;;;;;;;;;5066679;28;20512;-61
2022/12/04 13:33:23;;;;;;;20.02;11.65;;;;;;;;;;5073345;28;20085;-62
2022/12/04 13:35:55;;;;;;;19.08;11.63;;;;;;;;;;5073138;28;20055;-62
2022/12/04 13:38:37;;;;;;;18.52;10.73;;;;;;;;;;5067771;28;20036;-62
2022/12/04 13:41:15;;;;;;;22.38;12.50;;;4.10;99.90;;;;;;5071108;28;20040;-61
2022/12/04 13:43:41;;;;;;;21.35;11.65;;;4.00;99.90;;;;;;5070048;28;20054;-61
2022/12/04 13:46:20;;;;;;;22.60;12.73;;;;;;;;;;5067759;28;20079;-62
2022/12/04 13:48:46;;;;;;;18.65;10.40;;;;;;;;;;5054379;28;20325;-62
2022/12/04 13:51:34;;;;;;;21.23;11.52;;;;;;;;;;5058529;28;20067;-62
2022/12/04 13:54:12;;;;;;;22.67;12.32;;;;;;;;;;5080327;28;20044;-62
2022/12/04 13:56:42;;;;;;;18.98;11.68;;;;;;;;;;5079751;28;20052;-62
2022/12/04 13:59:26;;;;;;;21.35;11.40;;;;;;;;;;5082584;28;20465;-62
2022/12/04 14:02:04;;;;;;;23.80;14.38;;;;;;;;;;5066878;28;20064;-61
2022/12/04 14:04:32;;;;;;;22.95;11.77;;;;;;;;;;5077754;28;20039;-62
2022/12/04 14:07:00;;;;;;;19.65;11.05;;;4.10;99.90;;;;;;5056616;28;20040;-62
2022/12/04 14:09:48;;;;;;;18.27;10.77;;;3.90;99.90;;;;;;5078877;28;20032;-62
2022/12/04 14:12:15;;;;;;;17.67;10.02;;;;;;;;;;5073780;28;20121;-62
2022/12/04 14:14:51;;;;;;;20.02;10.68;;;;;;;;;;5085459;28;20051;-62
2022/12/04 14:17:19;;;;;;;22.42;12.82;;;;;;;;;;5077520;28;20048;-62
2022/12/04 14:19:51;;;;;;;20.88;11.15;;;;;;;;;;5077641;28;20082;-62
2022/12/04 14:22:43;;;;;;;19.95;11.35;;;4.10;99.90;;;;;;5082189;28;20484;-62